sensor_id;sensor_type;location;lat;lon;timestamp;P1;durP1;ratioP1;P2;durP2;ratioP2
63444;SDS011;49573;47.682;9.170;2024-02-28T00:02:16;25.05;;;15.18;;
63444;SDS011;49573;47.682;9.170;2024-02-28T00:05:02;28.40;;;14.95;;
63444;SDS011;49573;47.682;9.170;2024-02-28T00:07:48;26.75;;;15.38;;
63444;SDS011;49573;47.682;9.170;2024-02-28T00:10:34;26.52;;;16.45;;
63444;SDS011;49573;47.682;9.170;2024-02-28T00:13:20;26.30;;;16.05;;
63444;SDS011;49573;47.682;9.170;2024-02-28T00:16:07;25.80;;;15.85;;
63444;SDS011;49573;47.682;9.170;2024-02-28T00:18:55;25.55;;;15.85;;
63444;SDS011;49573;47.682;9.170;2024-02-28T00:21:41;27.65;;;15.23;;
63444;SDS011;49573;47.682;9.170;2024-02-28T00:24:27;27.20;;;16.40;;
63444;SDS011;49573;47.682;9.170;2024-02-28T00:27:14;26.02;;;15.05;;
63444;SDS011;49573;47.682;9.170;2024-02-28T00:30:00;26.02;;;15.48;;
63444;SDS011;49573;47.682;9.170;2024-02-28T00:32:47;26.65;;;15.95;;
63444;SDS011;49573;47.682;9.170;2024-02-28T00:35:34;26.42;;;16.65;;
63444;SDS011;49573;47.682;9.170;2024-02-28T00:38:20;23.75;;;14.40;;
63444;SDS011;49573;47.682;9.170;2024-02-28T00:41:06;26.40;;;15.48;;
63444;SDS011;49573;47.682;9.170;2024-02-28T00:43:52;26.60;;;15.50;;
63444;SDS011;49573;47.682;9.170;2024-02-28T00:46:39;27.85;;;15.95;;
63444;SDS011;49573;47.682;9.170;2024-02-28T00:49:25;27.13;;;15.05;;
63444;SDS011;49573;47.682;9.170;2024-02-28T00:52:12;28.85;;;16.73;;
63444;SDS011;49573;47.682;9.170;2024-02-28T00:54:58;26.65;;;15.50;;
63444;SDS011;49573;47.682;9.170;2024-02-28T00:57:45;24.98;;;15.23;;
63444;SDS011;49573;47.682;9.170;2024-02-28T01:00:31;26.98;;;15.57;;
63444;SDS011;49573;47.682;9.170;2024-02-28T01:03:17;24.80;;;15.07;;
63444;SDS011;49573;47.682;9.170;2024-02-28T01:06:04;26.75;;;15.82;;
63444;SDS011;49573;47.682;9.170;2024-02-28T01:08:51;25.67;;;15.45;;
63444;SDS011;49573;47.682;9.170;2024-02-28T01:11:37;29.50;;;16.92;;
63444;SDS011;49573;47.682;9.170;2024-02-28T01:14:23;26.42;;;15.90;;
63444;SDS011;49573;47.682;9.170;2024-02-28T01:17:09;30.58;;;16.20;;
63444;SDS011;49573;47.682;9.170;2024-02-28T01:19:55;23.90;;;15.35;;
63444;SDS011;49573;47.682;9.170;2024-02-28T01:22:42;27.20;;;15.87;;
63444;SDS011;49573;47.682;9.170;2024-02-28T01:25:29;28.80;;;16.45;;
63444;SDS011;49573;47.682;9.170;2024-02-28T01:28:15;25.58;;;15.98;;
63444;SDS011;49573;47.682;9.170;2024-02-28T01:31:01;26.50;;;15.52;;
63444;SDS011;49573;47.682;9.170;2024-02-28T01:33:48;30.30;;;16.50;;
63444;SDS011;49573;47.682;9.170;2024-02-28T01:36:34;30.35;;;16.25;;
63444;SDS011;49573;47.682;9.170;2024-02-28T01:39:20;25.15;;;14.55;;
63444;SDS011;49573;47.682;9.170;2024-02-28T01:42:07;24.65;;;14.43;;
63444;SDS011;49573;47.682;9.170;2024-02-28T01:44:54;24.55;;;15.23;;
63444;SDS011;49573;47.682;9.170;2024-02-28T01:47:40;24.95;;;15.50;;
63444;SDS011;49573;47.682;9.170;2024-02-28T01:50:27;24.35;;;15.20;;
63444;SDS011;49573;47.682;9.170;2024-02-28T01:53:13;26.13;;;15.82;;
63444;SDS011;49573;47.682;9.170;2024-02-28T01:56:00;20.47;;;14.27;;
63444;SDS011;49573;47.682;9.170;2024-02-28T01:58:48;25.08;;;15.07;;
63444;SDS011;49573;47.682;9.170;2024-02-28T02:01:35;22.63;;;14.55;;
63444;SDS011;49573;47.682;9.170;2024-02-28T02:04:22;24.98;;;14.77;;
63444;SDS011;49573;47.682;9.170;2024-02-28T02:07:08;23.88;;;15.05;;
63444;SDS011;49573;47.682;9.170;2024-02-28T02:09:54;25.33;;;14.77;;
63444;SDS011;49573;47.682;9.170;2024-02-28T02:12:40;26.08;;;14.85;;
63444;SDS011;49573;47.682;9.170;2024-02-28T02:15:27;25.13;;;14.85;;
63444;SDS011;49573;47.682;9.170;2024-02-28T02:18:15;26.15;;;15.00;;
63444;SDS011;49573;47.682;9.170;2024-02-28T02:21:02;25.50;;;14.68;;
63444;SDS011;49573;47.682;9.170;2024-02-28T02:23:51;25.58;;;15.93;;
63444;SDS011;49573;47.682;9.170;2024-02-28T02:26:37;28.27;;;15.43;;
63444;SDS011;49573;47.682;9.170;2024-02-28T02:29:23;27.30;;;15.85;;
63444;SDS011;49573;47.682;9.170;2024-02-28T02:32:09;28.08;;;15.40;;
63444;SDS011;49573;47.682;9.170;2024-02-28T02:34:55;24.80;;;14.70;;
63444;SDS011;49573;47.682;9.170;2024-02-28T02:37:43;27.70;;;16.52;;
63444;SDS011;49573;47.682;9.170;2024-02-28T02:40:32;23.58;;;14.77;;
63444;SDS011;49573;47.682;9.170;2024-02-28T02:43:18;23.67;;;14.75;;
63444;SDS011;49573;47.682;9.170;2024-02-28T02:46:04;26.13;;;14.82;;
63444;SDS011;49573;47.682;9.170;2024-02-28T02:48:50;24.67;;;15.13;;
63444;SDS011;49573;47.682;9.170;2024-02-28T02:51:38;24.30;;;13.85;;
63444;SDS011;49573;47.682;9.170;2024-02-28T02:54:24;25.42;;;15.20;;
63444;SDS011;49573;47.682;9.170;2024-02-28T02:57:11;23.02;;;15.15;;
63444;SDS011;49573;47.682;9.170;2024-02-28T02:59:57;24.73;;;15.05;;
63444;SDS011;49573;47.682;9.170;2024-02-28T03:02:43;24.77;;;14.70;;
63444;SDS011;49573;47.682;9.170;2024-02-28T03:05:29;25.52;;;14.90;;
63444;SDS011;49573;47.682;9.170;2024-02-28T03:08:15;25.42;;;15.85;;
63444;SDS011;49573;47.682;9.170;2024-02-28T03:11:01;21.33;;;14.02;;
63444;SDS011;49573;47.682;9.170;2024-02-28T03:13:51;24.60;;;14.68;;
63444;SDS011;49573;47.682;9.170;2024-02-28T03:16:40;27.30;;;14.63;;
63444;SDS011;49573;47.682;9.170;2024-02-28T03:19:26;28.98;;;14.73;;
63444;SDS011;49573;47.682;9.170;2024-02-28T03:22:13;25.23;;;14.63;;
63444;SDS011;49573;47.682;9.170;2024-02-28T03:24:59;24.52;;;15.00;;
63444;SDS011;49573;47.682;9.170;2024-02-28T03:27:45;25.90;;;14.27;;
63444;SDS011;49573;47.682;9.170;2024-02-28T03:30:32;24.75;;;14.43;;
63444;SDS011;49573;47.682;9.170;2024-02-28T03:33:18;23.33;;;14.15;;
63444;SDS011;49573;47.682;9.170;2024-02-28T03:36:04;23.88;;;14.63;;
63444;SDS011;49573;47.682;9.170;2024-02-28T03:38:51;23.77;;;14.35;;
63444;SDS011;49573;47.682;9.170;2024-02-28T03:41:37;24.13;;;13.52;;
63444;SDS011;49573;47.682;9.170;2024-02-28T03:44:23;25.17;;;14.70;;
63444;SDS011;49573;47.682;9.170;2024-02-28T03:47:12;25.10;;;14.48;;
63444;SDS011;49573;47.682;9.170;2024-02-28T03:49:58;24.05;;;14.05;;
63444;SDS011;49573;47.682;9.170;2024-02-28T03:52:45;25.80;;;15.48;;
63444;SDS011;49573;47.682;9.170;2024-02-28T03:55:31;23.48;;;14.20;;
63444;SDS011;49573;47.682;9.170;2024-02-28T03:58:17;23.38;;;14.05;;
63444;SDS011;49573;47.682;9.170;2024-02-28T04:01:03;24.35;;;14.43;;
63444;SDS011;49573;47.682;9.170;2024-02-28T04:03:50;25.13;;;14.57;;
63444;SDS011;49573;47.682;9.170;2024-02-28T04:06:36;23.70;;;13.90;;
63444;SDS011;49573;47.682;9.170;2024-02-28T04:09:23;23.70;;;14.25;;
63444;SDS011;49573;47.682;9.170;2024-02-28T04:12:09;22.90;;;14.65;;
63444;SDS011;49573;47.682;9.170;2024-02-28T04:14:56;23.88;;;14.63;;
63444;SDS011;49573;47.682;9.170;2024-02-28T04:17:42;27.13;;;13.88;;
63444;SDS011;49573;47.682;9.170;2024-02-28T04:20:30;21.75;;;14.00;;
63444;SDS011;49573;47.682;9.170;2024-02-28T04:23:16;21.63;;;13.02;;
63444;SDS011;49573;47.682;9.170;2024-02-28T04:26:02;21.60;;;13.15;;
63444;SDS011;49573;47.682;9.170;2024-02-28T04:28:48;23.48;;;13.45;;
63444;SDS011;49573;47.682;9.170;2024-02-28T04:31:34;23.58;;;13.80;;
63444;SDS011;49573;47.682;9.170;2024-02-28T04:34:23;22.02;;;13.27;;
63444;SDS011;49573;47.682;9.170;2024-02-28T04:37:11;22.02;;;13.70;;
63444;SDS011;49573;47.682;9.170;2024-02-28T04:39:57;23.05;;;13.90;;
63444;SDS011;49573;47.682;9.170;2024-02-28T04:42:43;23.55;;;13.82;;
63444;SDS011;49573;47.682;9.170;2024-02-28T04:45:29;25.33;;;14.00;;
63444;SDS011;49573;47.682;9.170;2024-02-28T04:48:15;22.15;;;13.98;;
63444;SDS011;49573;47.682;9.170;2024-02-28T04:51:01;22.80;;;14.27;;
63444;SDS011;49573;47.682;9.170;2024-02-28T04:53:49;22.50;;;13.30;;
63444;SDS011;49573;47.682;9.170;2024-02-28T04:56:38;21.17;;;13.27;;
63444;SDS011;49573;47.682;9.170;2024-02-28T04:59:25;24.77;;;13.38;;
63444;SDS011;49573;47.682;9.170;2024-02-28T05:02:11;25.00;;;14.07;;
63444;SDS011;49573;47.682;9.170;2024-02-28T05:04:57;24.67;;;13.60;;
63444;SDS011;49573;47.682;9.170;2024-02-28T05:07:44;23.42;;;14.23;;
63444;SDS011;49573;47.682;9.170;2024-02-28T05:10:31;21.60;;;13.60;;
63444;SDS011;49573;47.682;9.170;2024-02-28T05:13:19;25.10;;;14.23;;
63444;SDS011;49573;47.682;9.170;2024-02-28T05:16:11;25.00;;;14.50;;
63444;SDS011;49573;47.682;9.170;2024-02-28T05:18:58;24.55;;;14.23;;
63444;SDS011;49573;47.682;9.170;2024-02-28T05:21:44;22.20;;;13.45;;
63444;SDS011;49573;47.682;9.170;2024-02-28T05:24:31;21.20;;;13.32;;
63444;SDS011;49573;47.682;9.170;2024-02-28T05:27:18;22.73;;;13.57;;
63444;SDS011;49573;47.682;9.170;2024-02-28T05:30:04;22.13;;;12.50;;
63444;SDS011;49573;47.682;9.170;2024-02-28T05:32:51;22.27;;;12.90;;
63444;SDS011;49573;47.682;9.170;2024-02-28T05:35:37;21.23;;;12.52;;
63444;SDS011;49573;47.682;9.170;2024-02-28T05:38:23;19.15;;;11.98;;
63444;SDS011;49573;47.682;9.170;2024-02-28T05:41:10;20.42;;;12.45;;
63444;SDS011;49573;47.682;9.170;2024-02-28T05:43:57;20.52;;;12.15;;
63444;SDS011;49573;47.682;9.170;2024-02-28T05:46:43;20.85;;;11.70;;
63444;SDS011;49573;47.682;9.170;2024-02-28T05:49:29;20.98;;;11.70;;
63444;SDS011;49573;47.682;9.170;2024-02-28T05:52:15;21.15;;;12.07;;
63444;SDS011;49573;47.682;9.170;2024-02-28T05:55:01;23.38;;;12.80;;
63444;SDS011;49573;47.682;9.170;2024-02-28T05:57:48;18.85;;;12.23;;
63444;SDS011;49573;47.682;9.170;2024-02-28T06:00:35;18.33;;;11.52;;
63444;SDS011;49573;47.682;9.170;2024-02-28T06:03:21;19.25;;;11.55;;
63444;SDS011;49573;47.682;9.170;2024-02-28T06:06:07;18.55;;;11.30;;
63444;SDS011;49573;47.682;9.170;2024-02-28T06:08:53;20.58;;;11.70;;
63444;SDS011;49573;47.682;9.170;2024-02-28T06:11:39;20.40;;;12.45;;
63444;SDS011;49573;47.682;9.170;2024-02-28T06:14:25;19.75;;;11.25;;
63444;SDS011;49573;47.682;9.170;2024-02-28T06:17:13;21.17;;;12.43;;
63444;SDS011;49573;47.682;9.170;2024-02-28T06:19:59;22.30;;;12.35;;
63444;SDS011;49573;47.682;9.170;2024-02-28T06:22:45;22.05;;;12.40;;
63444;SDS011;49573;47.682;9.170;2024-02-28T06:25:31;20.77;;;12.07;;
63444;SDS011;49573;47.682;9.170;2024-02-28T06:28:19;21.30;;;12.43;;
63444;SDS011;49573;47.682;9.170;2024-02-28T06:31:11;19.67;;;11.68;;
63444;SDS011;49573;47.682;9.170;2024-02-28T06:33:58;20.17;;;12.27;;
63444;SDS011;49573;47.682;9.170;2024-02-28T06:36:44;21.70;;;12.48;;
63444;SDS011;49573;47.682;9.170;2024-02-28T06:39:31;19.38;;;12.15;;
63444;SDS011;49573;47.682;9.170;2024-02-28T06:42:17;19.63;;;11.85;;
63444;SDS011;49573;47.682;9.170;2024-02-28T06:45:03;18.92;;;11.60;;
63444;SDS011;49573;47.682;9.170;2024-02-28T06:47:49;20.17;;;11.65;;
63444;SDS011;49573;47.682;9.170;2024-02-28T06:50:37;20.00;;;12.05;;
63444;SDS011;49573;47.682;9.170;2024-02-28T06:53:23;20.90;;;12.27;;
63444;SDS011;49573;47.682;9.170;2024-02-28T06:56:10;20.15;;;11.48;;
63444;SDS011;49573;47.682;9.170;2024-02-28T06:58:56;22.75;;;12.82;;
63444;SDS011;49573;47.682;9.170;2024-02-28T07:01:42;20.75;;;12.75;;
63444;SDS011;49573;47.682;9.170;2024-02-28T07:04:28;19.50;;;11.65;;
63444;SDS011;49573;47.682;9.170;2024-02-28T07:07:15;26.25;;;13.10;;
63444;SDS011;49573;47.682;9.170;2024-02-28T07:10:02;20.40;;;12.23;;
63444;SDS011;49573;47.682;9.170;2024-02-28T07:12:49;19.80;;;12.60;;
63444;SDS011;49573;47.682;9.170;2024-02-28T07:15:35;21.38;;;12.70;;
63444;SDS011;49573;47.682;9.170;2024-02-28T07:18:21;22.52;;;12.95;;
63444;SDS011;49573;47.682;9.170;2024-02-28T07:21:10;21.73;;;11.35;;
63444;SDS011;49573;47.682;9.170;2024-02-28T07:23:58;22.08;;;12.88;;
63444;SDS011;49573;47.682;9.170;2024-02-28T07:26:44;21.35;;;12.30;;
63444;SDS011;49573;47.682;9.170;2024-02-28T07:29:31;20.98;;;12.00;;
63444;SDS011;49573;47.682;9.170;2024-02-28T07:32:18;21.95;;;12.30;;
63444;SDS011;49573;47.682;9.170;2024-02-28T07:35:04;22.38;;;12.90;;
63444;SDS011;49573;47.682;9.170;2024-02-28T07:37:51;22.65;;;12.95;;
63444;SDS011;49573;47.682;9.170;2024-02-28T07:40:39;21.17;;;13.00;;
63444;SDS011;49573;47.682;9.170;2024-02-28T07:43:25;22.67;;;12.82;;
63444;SDS011;49573;47.682;9.170;2024-02-28T07:46:11;22.15;;;12.15;;
63444;SDS011;49573;47.682;9.170;2024-02-28T07:48:57;23.87;;;13.67;;
63444;SDS011;49573;47.682;9.170;2024-02-28T07:51:43;21.90;;;12.95;;
63444;SDS011;49573;47.682;9.170;2024-02-28T07:54:29;21.50;;;13.32;;
63444;SDS011;49573;47.682;9.170;2024-02-28T07:57:17;21.50;;;13.20;;
63444;SDS011;49573;47.682;9.170;2024-02-28T08:00:03;24.02;;;13.75;;
63444;SDS011;49573;47.682;9.170;2024-02-28T08:02:49;22.67;;;12.57;;
63444;SDS011;49573;47.682;9.170;2024-02-28T08:05:35;23.63;;;13.82;;
63444;SDS011;49573;47.682;9.170;2024-02-28T08:08:24;23.05;;;12.80;;
63444;SDS011;49573;47.682;9.170;2024-02-28T08:11:10;22.88;;;12.50;;
63444;SDS011;49573;47.682;9.170;2024-02-28T08:13:58;22.83;;;13.32;;
63444;SDS011;49573;47.682;9.170;2024-02-28T08:16:44;21.05;;;12.85;;
63444;SDS011;49573;47.682;9.170;2024-02-28T08:19:29;27.60;;;14.02;;
63444;SDS011;49573;47.682;9.170;2024-02-28T08:22:15;24.15;;;13.18;;
63444;SDS011;49573;47.682;9.170;2024-02-28T08:25:02;25.67;;;14.02;;
63444;SDS011;49573;47.682;9.170;2024-02-28T08:27:48;27.05;;;15.75;;
63444;SDS011;49573;47.682;9.170;2024-02-28T08:30:35;29.85;;;16.70;;
63444;SDS011;49573;47.682;9.170;2024-02-28T08:33:21;31.02;;;17.20;;
63444;SDS011;49573;47.682;9.170;2024-02-28T08:36:07;24.73;;;14.52;;
63444;SDS011;49573;47.682;9.170;2024-02-28T08:38:53;24.10;;;14.18;;
63444;SDS011;49573;47.682;9.170;2024-02-28T08:41:39;25.05;;;14.35;;
63444;SDS011;49573;47.682;9.170;2024-02-28T08:44:25;25.77;;;15.02;;
63444;SDS011;49573;47.682;9.170;2024-02-28T08:47:13;25.13;;;13.45;;
63444;SDS011;49573;47.682;9.170;2024-02-28T08:49:59;23.70;;;14.05;;
63444;SDS011;49573;47.682;9.170;2024-02-28T08:52:45;22.10;;;14.07;;
63444;SDS011;49573;47.682;9.170;2024-02-28T08:55:31;22.83;;;14.23;;
63444;SDS011;49573;47.682;9.170;2024-02-28T08:58:17;24.85;;;14.10;;
63444;SDS011;49573;47.682;9.170;2024-02-28T09:01:03;28.05;;;15.80;;
63444;SDS011;49573;47.682;9.170;2024-02-28T09:03:51;28.55;;;14.75;;
63444;SDS011;49573;47.682;9.170;2024-02-28T09:06:37;26.95;;;15.05;;
63444;SDS011;49573;47.682;9.170;2024-02-28T09:09:23;24.42;;;14.65;;
63444;SDS011;49573;47.682;9.170;2024-02-28T09:12:09;22.00;;;14.00;;
63444;SDS011;49573;47.682;9.170;2024-02-28T09:14:55;24.52;;;13.15;;
63444;SDS011;49573;47.682;9.170;2024-02-28T09:17:43;29.08;;;16.55;;
63444;SDS011;49573;47.682;9.170;2024-02-28T09:20:30;27.20;;;15.30;;
63444;SDS011;49573;47.682;9.170;2024-02-28T09:23:16;26.67;;;15.57;;
63444;SDS011;49573;47.682;9.170;2024-02-28T09:26:03;25.25;;;14.07;;
63444;SDS011;49573;47.682;9.170;2024-02-28T09:28:49;24.40;;;14.68;;
63444;SDS011;49573;47.682;9.170;2024-02-28T09:31:35;22.92;;;13.52;;
63444;SDS011;49573;47.682;9.170;2024-02-28T09:34:21;23.33;;;13.95;;
63444;SDS011;49573;47.682;9.170;2024-02-28T09:37:09;23.95;;;13.70;;
63444;SDS011;49573;47.682;9.170;2024-02-28T09:39:55;22.83;;;13.18;;
63444;SDS011;49573;47.682;9.170;2024-02-28T09:42:41;24.10;;;14.38;;
63444;SDS011;49573;47.682;9.170;2024-02-28T09:45:27;24.20;;;13.80;;
63444;SDS011;49573;47.682;9.170;2024-02-28T09:48:16;24.15;;;14.52;;
63444;SDS011;49573;47.682;9.170;2024-02-28T09:51:03;22.63;;;13.43;;
63444;SDS011;49573;47.682;9.170;2024-02-28T09:53:52;21.55;;;12.85;;
63444;SDS011;49573;47.682;9.170;2024-02-28T09:56:38;24.23;;;13.82;;
63444;SDS011;49573;47.682;9.170;2024-02-28T09:59:24;22.45;;;13.80;;
63444;SDS011;49573;47.682;9.170;2024-02-28T10:02:10;20.50;;;13.10;;
63444;SDS011;49573;47.682;9.170;2024-02-28T10:04:58;26.00;;;14.13;;
63444;SDS011;49573;47.682;9.170;2024-02-28T10:10:36;23.25;;;13.70;;
63444;SDS011;49573;47.682;9.170;2024-02-28T10:13:22;21.38;;;13.13;;
63444;SDS011;49573;47.682;9.170;2024-02-28T10:16:08;22.90;;;13.73;;
63444;SDS011;49573;47.682;9.170;2024-02-28T10:18:55;22.40;;;12.55;;
63444;SDS011;49573;47.682;9.170;2024-02-28T10:21:41;20.25;;;11.95;;
63444;SDS011;49573;47.682;9.170;2024-02-28T10:24:27;20.77;;;13.40;;
63444;SDS011;49573;47.682;9.170;2024-02-28T10:27:16;22.05;;;12.57;;
63444;SDS011;49573;47.682;9.170;2024-02-28T10:30:05;20.58;;;12.20;;
63444;SDS011;49573;47.682;9.170;2024-02-28T10:32:52;20.27;;;12.10;;
63444;SDS011;49573;47.682;9.170;2024-02-28T10:35:38;21.30;;;11.65;;
63444;SDS011;49573;47.682;9.170;2024-02-28T10:38:25;20.55;;;12.23;;
63444;SDS011;49573;47.682;9.170;2024-02-28T10:41:12;20.83;;;11.80;;
63444;SDS011;49573;47.682;9.170;2024-02-28T10:44:01;20.58;;;12.43;;
63444;SDS011;49573;47.682;9.170;2024-02-28T10:46:48;19.25;;;12.02;;
63444;SDS011;49573;47.682;9.170;2024-02-28T10:49:35;19.02;;;12.05;;
63444;SDS011;49573;47.682;9.170;2024-02-28T10:52:21;21.45;;;11.88;;
63444;SDS011;49573;47.682;9.170;2024-02-28T10:55:08;19.55;;;11.90;;
63444;SDS011;49573;47.682;9.170;2024-02-28T10:57:57;18.07;;;11.63;;
63444;SDS011;49573;47.682;9.170;2024-02-28T11:00:48;19.58;;;12.20;;
63444;SDS011;49573;47.682;9.170;2024-02-28T11:03:35;20.55;;;12.00;;
63444;SDS011;49573;47.682;9.170;2024-02-28T11:06:21;20.55;;;12.15;;
63444;SDS011;49573;47.682;9.170;2024-02-28T11:11:57;20.33;;;12.38;;
63444;SDS011;49573;47.682;9.170;2024-02-28T11:14:43;21.55;;;12.77;;
63444;SDS011;49573;47.682;9.170;2024-02-28T11:17:30;20.17;;;12.68;;
63444;SDS011;49573;47.682;9.170;2024-02-28T11:20:17;20.05;;;11.95;;
63444;SDS011;49573;47.682;9.170;2024-02-28T11:23:05;18.60;;;11.60;;
63444;SDS011;49573;47.682;9.170;2024-02-28T11:25:52;22.95;;;12.57;;
63444;SDS011;49573;47.682;9.170;2024-02-28T11:28:38;22.85;;;13.52;;
63444;SDS011;49573;47.682;9.170;2024-02-28T11:31:25;23.25;;;13.63;;
63444;SDS011;49573;47.682;9.170;2024-02-28T11:34:13;25.20;;;14.30;;
63444;SDS011;49573;47.682;9.170;2024-02-28T11:36:59;23.77;;;14.75;;
63444;SDS011;49573;47.682;9.170;2024-02-28T11:39:46;23.13;;;14.45;;
63444;SDS011;49573;47.682;9.170;2024-02-28T11:42:32;25.75;;;14.90;;
63444;SDS011;49573;47.682;9.170;2024-02-28T11:45:20;24.55;;;15.10;;
63444;SDS011;49573;47.682;9.170;2024-02-28T11:48:12;25.75;;;15.68;;
63444;SDS011;49573;47.682;9.170;2024-02-28T11:51:00;26.38;;;15.35;;
63444;SDS011;49573;47.682;9.170;2024-02-28T11:53:46;24.65;;;14.90;;
63444;SDS011;49573;47.682;9.170;2024-02-28T11:56:32;26.25;;;15.57;;
63444;SDS011;49573;47.682;9.170;2024-02-28T11:59:18;23.35;;;15.25;;
63444;SDS011;49573;47.682;9.170;2024-02-28T12:01:51;26.08;;;15.15;;
63444;SDS011;49573;47.682;9.170;2024-02-28T12:04:37;24.27;;;15.00;;
63444;SDS011;49573;47.682;9.170;2024-02-28T12:07:25;24.20;;;13.87;;
63444;SDS011;49573;47.682;9.170;2024-02-28T12:10:11;26.00;;;15.52;;
63444;SDS011;49573;47.682;9.170;2024-02-28T12:15:44;24.30;;;14.90;;
63444;SDS011;49573;47.682;9.170;2024-02-28T12:18:31;24.83;;;14.93;;
63444;SDS011;49573;47.682;9.170;2024-02-28T12:21:17;23.42;;;14.57;;
63444;SDS011;49573;47.682;9.170;2024-02-28T12:24:05;24.52;;;15.77;;
63444;SDS011;49573;47.682;9.170;2024-02-28T12:26:54;30.13;;;19.05;;
63444;SDS011;49573;47.682;9.170;2024-02-28T12:29:40;32.15;;;18.63;;
63444;SDS011;49573;47.682;9.170;2024-02-28T12:32:26;27.08;;;16.45;;
63444;SDS011;49573;47.682;9.170;2024-02-28T12:35:12;27.65;;;16.90;;
63444;SDS011;49573;47.682;9.170;2024-02-28T12:37:58;27.80;;;17.13;;
63444;SDS011;49573;47.682;9.170;2024-02-28T12:40:46;25.53;;;16.37;;
63444;SDS011;49573;47.682;9.170;2024-02-28T12:43:32;27.38;;;17.23;;
63444;SDS011;49573;47.682;9.170;2024-02-28T12:46:18;28.55;;;16.48;;
63444;SDS011;49573;47.682;9.170;2024-02-28T12:49:04;25.75;;;15.98;;
63444;SDS011;49573;47.682;9.170;2024-02-28T12:51:51;28.30;;;16.33;;
63444;SDS011;49573;47.682;9.170;2024-02-28T12:54:37;27.70;;;16.60;;
63444;SDS011;49573;47.682;9.170;2024-02-28T12:57:24;30.42;;;17.00;;
63444;SDS011;49573;47.682;9.170;2024-02-28T13:00:11;27.55;;;16.02;;
63444;SDS011;49573;47.682;9.170;2024-02-28T13:02:58;25.88;;;16.27;;
63444;SDS011;49573;47.682;9.170;2024-02-28T13:05:44;24.15;;;15.13;;
63444;SDS011;49573;47.682;9.170;2024-02-28T13:08:30;26.38;;;16.52;;
63444;SDS011;49573;47.682;9.170;2024-02-28T13:11:17;27.83;;;15.93;;
63444;SDS011;49573;47.682;9.170;2024-02-28T13:14:06;29.58;;;17.70;;
63444;SDS011;49573;47.682;9.170;2024-02-28T13:16:54;28.58;;;17.17;;
63444;SDS011;49573;47.682;9.170;2024-02-28T13:19:40;26.63;;;16.27;;
63444;SDS011;49573;47.682;9.170;2024-02-28T13:22:26;30.10;;;17.48;;
63444;SDS011;49573;47.682;9.170;2024-02-28T13:25:12;26.45;;;16.27;;
63444;SDS011;49573;47.682;9.170;2024-02-28T13:27:59;28.27;;;16.10;;
63444;SDS011;49573;47.682;9.170;2024-02-28T13:30:47;28.13;;;16.65;;
63444;SDS011;49573;47.682;9.170;2024-02-28T13:33:33;29.33;;;16.95;;
63444;SDS011;49573;47.682;9.170;2024-02-28T13:36:22;24.60;;;15.65;;
63444;SDS011;49573;47.682;9.170;2024-02-28T13:39:08;27.63;;;16.73;;
63444;SDS011;49573;47.682;9.170;2024-02-28T13:41:54;24.10;;;16.15;;
63444;SDS011;49573;47.682;9.170;2024-02-28T13:44:40;24.77;;;16.15;;
63444;SDS011;49573;47.682;9.170;2024-02-28T13:47:28;26.88;;;17.13;;
63444;SDS011;49573;47.682;9.170;2024-02-28T13:50:14;28.13;;;16.10;;
63444;SDS011;49573;47.682;9.170;2024-02-28T13:53:00;28.77;;;17.02;;
63444;SDS011;49573;47.682;9.170;2024-02-28T13:55:46;31.30;;;17.63;;
63444;SDS011;49573;47.682;9.170;2024-02-28T13:58:32;26.65;;;16.27;;
63444;SDS011;49573;47.682;9.170;2024-02-28T14:01:18;25.83;;;16.48;;
63444;SDS011;49573;47.682;9.170;2024-02-28T14:04:06;26.55;;;17.00;;
63444;SDS011;49573;47.682;9.170;2024-02-28T14:06:52;27.38;;;16.40;;
63444;SDS011;49573;47.682;9.170;2024-02-28T14:09:38;27.42;;;15.70;;
63444;SDS011;49573;47.682;9.170;2024-02-28T14:12:24;29.98;;;17.42;;
63444;SDS011;49573;47.682;9.170;2024-02-28T14:15:10;30.23;;;17.98;;
63444;SDS011;49573;47.682;9.170;2024-02-28T14:20:24;26.50;;;16.27;;
63444;SDS011;49573;47.682;9.170;2024-02-28T14:23:10;30.40;;;17.98;;
63444;SDS011;49573;47.682;9.170;2024-02-28T14:25:56;27.55;;;16.92;;
63444;SDS011;49573;47.682;9.170;2024-02-28T14:28:42;28.27;;;17.95;;
63444;SDS011;49573;47.682;9.170;2024-02-28T14:31:28;27.07;;;16.50;;
63444;SDS011;49573;47.682;9.170;2024-02-28T14:34:14;31.20;;;17.75;;
63444;SDS011;49573;47.682;9.170;2024-02-28T14:37:02;31.48;;;17.83;;
63444;SDS011;49573;47.682;9.170;2024-02-28T14:39:49;29.42;;;18.20;;
63444;SDS011;49573;47.682;9.170;2024-02-28T14:42:35;28.10;;;17.67;;
63444;SDS011;49573;47.682;9.170;2024-02-28T14:45:21;31.73;;;18.17;;
63444;SDS011;49573;47.682;9.170;2024-02-28T14:48:09;30.65;;;16.98;;
63444;SDS011;49573;47.682;9.170;2024-02-28T14:50:55;27.85;;;17.17;;
63444;SDS011;49573;47.682;9.170;2024-02-28T14:53:43;27.20;;;16.50;;
63444;SDS011;49573;47.682;9.170;2024-02-28T14:56:29;28.52;;;16.90;;
63444;SDS011;49573;47.682;9.170;2024-02-28T14:59:15;27.48;;;16.75;;
63444;SDS011;49573;47.682;9.170;2024-02-28T15:02:01;31.17;;;17.75;;
63444;SDS011;49573;47.682;9.170;2024-02-28T15:04:47;30.70;;;18.40;;
63444;SDS011;49573;47.682;9.170;2024-02-28T15:07:35;28.70;;;17.30;;
63444;SDS011;49573;47.682;9.170;2024-02-28T15:10:23;31.08;;;18.20;;
63444;SDS011;49573;47.682;9.170;2024-02-28T15:13:09;30.88;;;17.73;;
63444;SDS011;49573;47.682;9.170;2024-02-28T15:15:54;29.35;;;17.30;;
63444;SDS011;49573;47.682;9.170;2024-02-28T15:18:40;30.50;;;18.13;;
63444;SDS011;49573;47.682;9.170;2024-02-28T15:21:26;28.17;;;17.73;;
63444;SDS011;49573;47.682;9.170;2024-02-28T15:24:12;30.00;;;18.27;;
63444;SDS011;49573;47.682;9.170;2024-02-28T15:27:01;30.25;;;18.77;;
63444;SDS011;49573;47.682;9.170;2024-02-28T15:29:47;32.40;;;19.80;;
63444;SDS011;49573;47.682;9.170;2024-02-28T15:32:33;31.98;;;18.65;;
63444;SDS011;49573;47.682;9.170;2024-02-28T15:35:19;29.42;;;17.85;;
63444;SDS011;49573;47.682;9.170;2024-02-28T15:38:07;25.85;;;16.88;;
63444;SDS011;49573;47.682;9.170;2024-02-28T15:40:53;29.65;;;17.05;;
63444;SDS011;49573;47.682;9.170;2024-02-28T15:43:41;27.70;;;17.83;;
63444;SDS011;49573;47.682;9.170;2024-02-28T15:46:27;30.70;;;20.58;;
63444;SDS011;49573;47.682;9.170;2024-02-28T15:49:13;29.73;;;18.58;;
63444;SDS011;49573;47.682;9.170;2024-02-28T15:51:59;27.40;;;17.08;;
63444;SDS011;49573;47.682;9.170;2024-02-28T15:54:45;32.05;;;18.98;;
63444;SDS011;49573;47.682;9.170;2024-02-28T15:57:31;30.90;;;18.38;;
63444;SDS011;49573;47.682;9.170;2024-02-28T16:00:19;33.67;;;18.70;;
63444;SDS011;49573;47.682;9.170;2024-02-28T16:03:05;30.23;;;19.00;;
63444;SDS011;49573;47.682;9.170;2024-02-28T16:05:51;29.87;;;19.00;;
63444;SDS011;49573;47.682;9.170;2024-02-28T16:08:39;30.92;;;18.67;;
63444;SDS011;49573;47.682;9.170;2024-02-28T16:11:26;32.50;;;18.83;;
63444;SDS011;49573;47.682;9.170;2024-02-28T16:14:13;25.90;;;16.07;;
63444;SDS011;49573;47.682;9.170;2024-02-28T16:17:00;31.48;;;19.63;;
63444;SDS011;49573;47.682;9.170;2024-02-28T16:19:46;27.27;;;17.38;;
63444;SDS011;49573;47.682;9.170;2024-02-28T16:22:32;30.48;;;18.05;;
63444;SDS011;49573;47.682;9.170;2024-02-28T16:25:18;28.30;;;18.48;;